Time,TemperatureF,DewpointF,PressureIn,WindDirection,WindDirectionDegrees,WindSpeedMPH,WindSpeedGustMPH,Humidity,HourlyPrecipIn,Conditions,Clouds,dailyrainin,SolarRadiationWatts/m^2,SoftwareType,DateUTC
2013-01-24 00:02:00,33.0,31.0,-100.00,ESE,108,15.0,24.0,94,0.03,,,0.03,0.000000,,2013-01-24 07:02:00,
2013-01-24 00:12:00,33.0,31.0,-100.00,ESE,108,15.0,24.0,94,0.03,,,0.03,0.000000,,2013-01-24 07:12:00,
2013-01-24 00:22:00,33.0,31.0,-100.00,ESE,108,15.0,24.0,94,0.03,,,0.03,0.000000,,2013-01-24 07:22:00,
2013-01-24 00:32:00,33.0,31.0,-100.00,ESE,108,15.0,24.0,94,0.03,,,0.03,0.000000,,2013-01-24 07:32:00,
2013-01-24 01:02:00,34.0,33.0,-100.00,SE,124,16.0,24.0,96,0.03,,,0.06,0.000000,,2013-01-24 08:02:00,
2013-01-24 01:12:00,34.0,33.0,-100.00,SE,124,16.0,24.0,96,0.03,,,0.06,0.000000,,2013-01-24 08:12:00,
2013-01-24 01:22:00,34.0,33.0,-100.00,SE,124,16.0,24.0,96,0.03,,,0.06,0.000000,,2013-01-24 08:22:00,
2013-01-24 01:32:00,34.0,33.0,-100.00,SE,124,16.0,24.0,96,0.03,,,0.06,0.000000,,2013-01-24 08:32:00,
2013-01-24 01:53:00,33.0,32.0,-100.00,SE,125,14.0,23.0,95,0.01,,,0.07,0.000000,,2013-01-24 08:53:00,
2013-01-24 02:02:00,33.0,32.0,-100.00,SE,125,14.0,23.0,95,0.01,,,0.07,0.000000,,2013-01-24 09:02:00,
2013-01-24 02:12:00,33.0,32.0,-100.00,SE,125,14.0,23.0,95,0.01,,,0.07,0.000000,,2013-01-24 09:12:00,
2013-01-24 02:22:00,33.0,32.0,-100.00,SE,125,14.0,23.0,95,0.01,,,0.07,0.000000,,2013-01-24 09:22:00,
2013-01-24 02:32:00,33.0,32.0,-100.00,SE,125,14.0,23.0,95,0.01,,,0.07,0.000000,,2013-01-24 09:32:00,
2013-01-24 03:02:00,33.0,32.0,-100.00,ESE,115,15.0,24.0,96,0.01,,,0.08,0.000000,,2013-01-24 10:02:00,
2013-01-24 03:12:00,33.0,32.0,-100.00,ESE,115,15.0,24.0,96,0.01,,,0.08,0.000000,,2013-01-24 10:12:00,
2013-01-24 03:22:00,33.0,32.0,-100.00,ESE,115,15.0,24.0,96,0.01,,,0.08,0.000000,,2013-01-24 10:22:00,
2013-01-24 03:32:00,33.0,32.0,-100.00,ESE,115,15.0,24.0,96,0.01,,,0.08,0.000000,,2013-01-24 10:32:00,
2013-01-24 04:02:00,33.0,31.0,-100.00,SE,126,12.0,22.0,94,0.00,,,0.08,0.000000,,2013-01-24 11:02:00,
2013-01-24 04:12:00,33.0,31.0,-100.00,SE,126,12.0,22.0,94,0.00,,,0.08,0.000000,,2013-01-24 11:12:00,
2013-01-24 04:22:00,33.0,31.0,-100.00,SE,126,12.0,22.0,94,0.00,,,0.08,0.000000,,2013-01-24 11:22:00,
2013-01-24 04:32:00,33.0,31.0,-100.00,SE,126,12.0,22.0,94,0.00,,,0.08,0.000000,,2013-01-24 11:32:00,
2013-01-24 05:03:00,33.0,32.0,-100.00,ESE,115,13.0,20.0,95,0.00,,,0.08,0.000000,,2013-01-24 12:03:00,
2013-01-24 05:12:00,33.0,32.0,-100.00,ESE,115,13.0,20.0,95,0.00,,,0.08,0.000000,,2013-01-24 12:12:00,
2013-01-24 05:22:00,33.0,32.0,-100.00,ESE,115,13.0,20.0,95,0.00,,,0.08,0.000000,,2013-01-24 12:22:00,
2013-01-24 05:32:00,33.0,32.0,-100.00,ESE,115,13.0,20.0,95,0.00,,,0.08,0.000000,,2013-01-24 12:32:00,
2013-01-24 06:02:00,34.0,31.0,-100.00,ESE,104,10.0,21.0,87,0.00,,,0.08,0.000000,,2013-01-24 13:02:00,
2013-01-24 06:12:00,34.0,31.0,-100.00,ESE,104,10.0,21.0,87,0.00,,,0.08,0.000000,,2013-01-24 13:12:00,
2013-01-24 06:22:00,34.0,31.0,-100.00,ESE,104,10.0,21.0,87,0.00,,,0.08,0.000000,,2013-01-24 13:22:00,
2013-01-24 06:32:00,34.0,31.0,-100.00,ESE,104,10.0,21.0,87,0.00,,,0.08,0.000000,,2013-01-24 13:32:00,
2013-01-24 07:02:00,34.0,31.0,-100.00,East,92,6.0,14.0,90,0.00,,,0.08,0.000000,,2013-01-24 14:02:00,
2013-01-24 07:12:00,34.0,31.0,-100.00,East,92,6.0,14.0,90,0.00,,,0.08,0.000000,,2013-01-24 14:12:00,
2013-01-24 07:22:00,34.0,31.0,-100.00,East,92,6.0,14.0,90,0.00,,,0.08,0.000000,,2013-01-24 14:22:00,
2013-01-24 07:32:00,34.0,31.0,-100.00,East,92,6.0,14.0,90,0.00,,,0.08,0.000000,,2013-01-24 14:32:00,
2013-01-24 08:03:00,33.0,31.0,-100.00,ESE,113,6.0,9.0,93,0.00,,,0.08,0.000000,,2013-01-24 15:03:00,
2013-01-24 08:12:00,33.0,31.0,-100.00,ESE,113,6.0,9.0,93,0.00,,,0.08,0.000000,,2013-01-24 15:12:00,
2013-01-24 08:22:00,33.0,31.0,-100.00,ESE,113,6.0,9.0,93,0.00,,,0.08,0.000000,,2013-01-24 15:22:00,
2013-01-24 08:32:00,33.0,31.0,-100.00,ESE,113,6.0,9.0,93,0.00,,,0.08,0.000000,,2013-01-24 15:32:00,
2013-01-24 08:53:00,33.0,31.0,-100.00,ESE,104,4.0,7.0,94,0.00,,,-99.99,2.000000,,2013-01-24 15:53:00,
2013-01-24 09:03:00,33.0,31.0,-100.00,ESE,104,4.0,7.0,94,0.00,,,-99.99,2.000000,,2013-01-24 16:03:00,
2013-01-24 09:12:00,33.0,31.0,-100.00,ESE,104,4.0,7.0,94,0.00,,,-99.99,2.000000,,2013-01-24 16:12:00,
2013-01-24 09:22:00,33.0,31.0,-100.00,ESE,104,4.0,7.0,94,0.00,,,-99.99,2.000000,,2013-01-24 16:22:00,
2013-01-24 09:33:00,33.0,31.0,-100.00,ESE,104,4.0,7.0,94,0.00,,,-99.99,2.000000,,2013-01-24 16:33:00,
2013-01-24 10:02:00,34.0,32.0,-100.00,ESE,112,4.0,7.0,92,0.00,,,0.08,36.000000,,2013-01-24 17:02:00,
2013-01-24 10:11:00,34.0,32.0,-100.00,ESE,112,4.0,7.0,92,0.00,,,0.08,36.000000,,2013-01-24 17:11:00,
2013-01-24 10:21:00,34.0,32.0,-100.00,ESE,112,4.0,7.0,92,0.00,,,0.08,36.000000,,2013-01-24 17:21:00,
2013-01-24 10:31:00,34.0,32.0,-100.00,ESE,112,4.0,7.0,92,0.00,,,0.08,36.000000,,2013-01-24 17:31:00,
2013-01-24 11:02:00,36.0,32.0,-100.00,ESE,121,4.0,7.0,85,0.00,,,0.08,90.000000,,2013-01-24 18:02:00,
2013-01-24 11:12:00,36.0,32.0,-100.00,ESE,121,4.0,7.0,85,0.00,,,0.08,90.000000,,2013-01-24 18:12:00,
2013-01-24 11:22:00,36.0,32.0,-100.00,ESE,121,4.0,7.0,85,0.00,,,0.08,90.000000,,2013-01-24 18:22:00,
2013-01-24 11:32:00,36.0,32.0,-100.00,ESE,121,4.0,7.0,85,0.00,,,0.08,90.000000,,2013-01-24 18:32:00,
2013-01-24 12:02:00,38.0,30.0,-100.00,South,169,5.0,11.0,73,0.00,,,0.08,156.000000,,2013-01-24 19:02:00,
2013-01-24 12:12:00,38.0,30.0,-100.00,South,169,5.0,11.0,73,0.00,,,0.08,156.000000,,2013-01-24 19:12:00,
2013-01-24 12:21:00,38.0,30.0,-100.00,South,169,5.0,11.0,73,0.00,,,0.08,156.000000,,2013-01-24 19:21:00,
2013-01-24 12:32:00,38.0,30.0,-100.00,South,169,5.0,11.0,73,0.00,,,0.08,156.000000,,2013-01-24 19:32:00,
2013-01-24 14:02:00,39.0,26.0,-100.00,SSW,212,5.0,14.0,60,-99.99,,,0.08,182.000000,,2013-01-24 21:02:00,
2013-01-24 14:12:00,39.0,26.0,-100.00,SSW,212,5.0,14.0,60,-99.99,,,0.08,182.000000,,2013-01-24 21:12:00,
2013-01-24 14:22:00,39.0,26.0,-100.00,SSW,212,5.0,14.0,60,-99.99,,,0.08,182.000000,,2013-01-24 21:22:00,
2013-01-24 14:32:00,39.0,26.0,-100.00,SSW,212,5.0,14.0,60,-99.99,,,0.08,182.000000,,2013-01-24 21:32:00,
2013-01-24 15:02:00,43.0,26.0,-100.00,SSW,195,6.0,20.0,50,0.00,,,0.08,228.000000,,2013-01-24 22:02:00,
2013-01-24 15:12:00,43.0,26.0,-100.00,SSW,195,6.0,20.0,50,0.00,,,0.08,228.000000,,2013-01-24 22:12:00,
2013-01-24 15:22:00,43.0,26.0,-100.00,SSW,195,6.0,20.0,50,0.00,,,0.08,228.000000,,2013-01-24 22:22:00,
2013-01-24 15:32:00,43.0,26.0,-100.00,SSW,195,6.0,20.0,50,0.00,,,0.08,228.000000,,2013-01-24 22:32:00,
2013-01-24 16:02:00,41.0,25.0,-100.00,WSW,252,2.0,16.0,52,0.00,,,0.08,233.000000,,2013-01-24 23:02:00,
2013-01-24 16:11:00,41.0,25.0,-100.00,WSW,252,2.0,16.0,52,0.00,,,0.08,233.000000,,2013-01-24 23:11:00,
2013-01-24 16:21:00,41.0,25.0,-100.00,WSW,252,2.0,16.0,52,0.00,,,0.08,233.000000,,2013-01-24 23:21:00,
2013-01-24 16:32:00,41.0,25.0,-100.00,WSW,252,2.0,16.0,52,0.00,,,0.08,233.000000,,2013-01-24 23:32:00,
2013-01-24 17:02:00,40.0,28.0,-100.00,SSW,212,4.0,8.0,61,0.00,,,0.08,100.000000,,2013-01-25 00:02:00,
2013-01-24 17:12:00,40.0,28.0,-100.00,SSW,212,4.0,8.0,61,0.00,,,0.08,100.000000,,2013-01-25 00:12:00,
2013-01-24 17:22:00,40.0,28.0,-100.00,SSW,212,4.0,8.0,61,0.00,,,0.08,100.000000,,2013-01-25 00:22:00,
2013-01-24 17:32:00,40.0,28.0,-100.00,SSW,212,4.0,8.0,61,0.00,,,0.08,100.000000,,2013-01-25 00:32:00,
2013-01-24 17:52:00,38.0,25.0,-100.00,SSE,157,4.0,14.0,59,0.00,,,0.08,31.000000,,2013-01-25 00:52:00,
2013-01-24 18:01:00,38.0,25.0,-100.00,SSE,157,4.0,14.0,59,0.00,,,0.08,31.000000,,2013-01-25 01:01:00,
2013-01-24 18:12:00,38.0,25.0,-100.00,SSE,157,4.0,14.0,59,0.00,,,0.08,31.000000,,2013-01-25 01:12:00,
2013-01-24 18:21:00,38.0,25.0,-100.00,SSE,157,4.0,14.0,59,0.00,,,0.08,31.000000,,2013-01-25 01:21:00,
2013-01-24 18:31:00,38.0,25.0,-100.00,SSE,157,4.0,14.0,59,0.00,,,0.08,31.000000,,2013-01-25 01:31:00,
2013-01-24 18:52:00,37.0,27.0,-100.00,ESE,122,5.0,12.0,68,0.00,,,0.08,0.000000,,2013-01-25 01:52:00,
2013-01-24 19:02:00,37.0,27.0,-100.00,ESE,122,5.0,12.0,68,0.00,,,0.08,0.000000,,2013-01-25 02:02:00,
2013-01-24 19:11:00,37.0,27.0,-100.00,ESE,122,5.0,12.0,68,0.00,,,0.08,0.000000,,2013-01-25 02:11:00,
2013-01-24 19:22:00,37.0,27.0,-100.00,ESE,122,5.0,12.0,68,0.00,,,0.08,0.000000,,2013-01-25 02:22:00,
2013-01-24 19:31:00,37.0,27.0,-100.00,ESE,122,5.0,12.0,68,0.00,,,0.08,0.000000,,2013-01-25 02:31:00,
2013-01-24 20:02:00,36.0,29.0,-100.00,SE,127,9.0,17.0,74,0.00,,,0.08,0.000000,,2013-01-25 03:02:00,
2013-01-24 20:12:00,36.0,29.0,-100.00,SE,127,9.0,17.0,74,0.00,,,0.08,0.000000,,2013-01-25 03:12:00,
2013-01-24 20:22:00,36.0,29.0,-100.00,SE,127,9.0,17.0,74,0.00,,,0.08,0.000000,,2013-01-25 03:22:00,
2013-01-24 20:32:00,36.0,29.0,-100.00,SE,127,9.0,17.0,74,0.00,,,0.08,0.000000,,2013-01-25 03:32:00,
2013-01-24 21:02:00,36.0,29.0,-100.00,ESE,120,8.0,15.0,74,0.00,,,0.08,0.000000,,2013-01-25 04:02:00,
2013-01-24 21:12:00,36.0,29.0,-100.00,ESE,120,8.0,15.0,74,0.00,,,0.08,0.000000,,2013-01-25 04:12:00,
2013-01-24 21:22:00,36.0,29.0,-100.00,ESE,120,8.0,15.0,74,0.00,,,0.08,0.000000,,2013-01-25 04:22:00,
2013-01-24 21:31:00,36.0,29.0,-100.00,ESE,120,8.0,15.0,74,0.00,,,0.08,0.000000,,2013-01-25 04:31:00,
2013-01-24 22:03:00,37.0,29.0,-100.00,SE,130,4.0,13.0,72,0.00,,,0.08,0.000000,,2013-01-25 05:03:00,
2013-01-24 22:12:00,37.0,29.0,-100.00,SE,130,4.0,13.0,72,0.00,,,0.08,0.000000,,2013-01-25 05:12:00,
2013-01-24 22:22:00,37.0,29.0,-100.00,SE,130,4.0,13.0,72,0.00,,,0.08,0.000000,,2013-01-25 05:22:00,
2013-01-24 22:32:00,37.0,29.0,-100.00,SE,130,4.0,13.0,72,0.00,,,0.08,0.000000,,2013-01-25 05:32:00,
2013-01-24 23:02:00,36.0,29.0,-100.00,ESE,104,6.0,9.0,75,0.00,,,0.08,0.000000,,2013-01-25 06:02:00,
2013-01-24 23:11:00,36.0,29.0,-100.00,ESE,104,6.0,9.0,75,0.00,,,0.08,0.000000,,2013-01-25 06:11:00,
2013-01-24 23:21:00,36.0,29.0,-100.00,ESE,104,6.0,9.0,75,0.00,,,0.08,0.000000,,2013-01-25 06:21:00,
2013-01-24 23:31:00,36.0,29.0,-100.00,ESE,104,6.0,9.0,75,0.00,,,0.08,0.000000,,2013-01-25 06:31:00,
2013-01-24 23:52:00,36.0,29.0,-100.00,ESE,116,5.0,14.0,76,0.00,,,0.05,0.000000,,2013-01-25 06:52:00,